Pagina principale
METAR-TAF:

METAR-TAF

Aeroporti :

Lamezia Terme, Italia

Aeroporto di Lamezia Terme

latitudine: 38-54N, longitudine: 016-15E, altezza: 15 m

Osservazione

Il bollettino è stato emesso 39 minuti fa, alle 09:50 UTC
Vento 10 kt da ovest
Temperature 22°C
Umidità 46%
Pressione 1019 hPa
Visibilità 10 km o più
Poco nuvoloso ad un'altezza di 3000 ft

METAR: LICA 210950Z 26010KT 9999 FEW030 22/10 Q1019

Ora: 12:29 (10:29 UTC)

Previsione

Il bollettino è stato emesso 5 ore e 29 minuti fa, alle 05:00 UTC
Previsione valida dal 21 alle 06 UTC al 22 alle 06 UTC
Vento 5 kt da direzioni variabili
Visibilità 10 km o più
Poco nuvoloso ad un'altezza di 3000 ft
Evoluzione graduale
dal 21 alle 08 UTC al 21 alle 10 UTC
Vento 13 kt da ovest
Evoluzione graduale
dal 21 alle 18 UTC al 21 alle 20 UTC
Vento 5 kt da direzioni variabili

TAF: LICA 210500Z 2106/2206 VRB05KT 9999 FEW030 BECMG 2108/2110 27013KT BECMG 2118/2120 VRB05KT

Osservazioni e previsioni meteorologiche di più di 4000 aeroporti (messaggi METAR e TAF).

Le stazioni disponibili sono rappresentate dai dischi gialli e rossi sulla carta.

Puntare il mouse per vedere il nome della stazione.

Clicca sopra per visualizzare le osservazioni e previsioni meteorologiche.

Per cambiare la mappa : fare clic sui pulsanti verdi con una croce nera per ingrandire, il pulsante verde con un trattino per diminuire, o sulla freccia verde per le mappe adiacenti.


METAR-TAF: